createdAt,value
2019-04-11T00:00:44.463Z,1.00
2019-04-11T00:03:15.358Z,1.00
2019-04-11T00:05:45.763Z,1.00
2019-04-11T00:08:16.014Z,1.00
2019-04-11T00:10:47.038Z,1.00
2019-04-11T00:13:23.920Z,1.00
2019-04-11T00:15:49.294Z,1.00
2019-04-11T00:18:20.791Z,1.00
2019-04-11T00:20:51.127Z,0.90
2019-04-11T00:23:21.795Z,0.90
2019-04-11T00:25:52.273Z,0.90
2019-04-11T00:28:23.635Z,0.90
2019-04-11T00:30:54.663Z,0.90
2019-04-11T00:33:24.982Z,0.90
2019-04-11T00:35:55.678Z,0.80
2019-04-11T00:38:26.105Z,0.90
2019-04-11T00:40:57.498Z,0.90
2019-04-11T00:43:35.294Z,0.80
2019-04-11T00:46:01.814Z,0.80
2019-04-11T00:48:33.491Z,0.80
2019-04-11T00:51:03.834Z,0.70
2019-04-11T00:53:34.146Z,0.80
2019-04-11T00:56:04.414Z,0.80
2019-04-11T00:58:36.047Z,0.80
2019-04-11T01:01:07.205Z,0.80
2019-04-11T01:03:38.103Z,0.70
2019-04-11T01:06:08.474Z,0.70
2019-04-11T01:08:39.852Z,0.70
2019-04-11T01:11:10.185Z,0.70
2019-04-11T01:13:47.742Z,0.70
2019-04-11T01:16:26.232Z,0.60
2019-04-11T01:18:56.556Z,0.60
2019-04-11T01:21:26.786Z,0.60
2019-04-11T01:23:57.523Z,0.50
2019-04-11T01:26:28.257Z,0.50
2019-04-11T01:29:00.855Z,0.50
2019-04-11T01:31:33.647Z,0.50
2019-04-11T01:34:04.415Z,0.50
2019-04-11T01:36:35.350Z,0.40
2019-04-11T01:39:29.862Z,0.40
2019-04-11T01:42:00.730Z,0.30
2019-04-11T01:44:32.490Z,0.40
2019-04-11T01:47:03.584Z,0.30
2019-04-11T01:49:34.681Z,0.30
2019-04-11T01:52:05.081Z,0.40
2019-04-11T01:54:35.520Z,0.40
2019-04-11T01:57:05.761Z,0.40
2019-04-11T01:59:35.953Z,0.40
2019-04-11T02:02:17.105Z,0.40
2019-04-11T02:04:58.691Z,0.60
2019-04-11T02:07:30.986Z,0.60
2019-04-11T02:10:02.375Z,0.70
2019-04-11T02:12:32.814Z,0.70
2019-04-11T02:15:03.918Z,0.60
2019-04-11T02:17:35.442Z,0.60
2019-04-11T02:20:09.126Z,0.60
2019-04-11T02:22:44.068Z,0.60
2019-04-11T02:25:24.829Z,0.60
2019-04-11T02:27:56.073Z,0.60
2019-04-11T02:30:27.877Z,0.70
2019-04-11T02:32:58.394Z,0.60
2019-04-11T02:35:29.025Z,0.60
2019-04-11T02:37:59.838Z,0.80
2019-04-11T02:40:32.288Z,0.80
2019-04-11T02:43:02.015Z,0.90
2019-04-11T02:45:45.274Z,0.90
2019-04-11T02:48:05.882Z,1.10
2019-04-11T02:50:37.214Z,1.10
2019-04-11T02:53:09.427Z,1.00
2019-04-11T02:55:41.638Z,1.10
2019-04-11T02:58:13.142Z,1.10
2019-04-11T03:00:45.499Z,1.10
2019-04-11T03:03:17.434Z,1.10
2019-04-11T03:05:47.915Z,1.00
2019-04-11T03:08:19.752Z,1.00
2019-04-11T03:10:51.453Z,1.00
2019-04-11T03:13:23.244Z,1.00
2019-04-11T03:16:08.140Z,1.00
2019-04-11T03:18:46.896Z,0.90
2019-04-11T03:21:05.715Z,0.90
2019-04-11T03:23:31.197Z,0.90
2019-04-11T03:26:03.229Z,0.90
2019-04-11T03:28:35.826Z,0.90
2019-04-11T03:31:42.771Z,0.90
2019-04-11T03:39:07.613Z,0.80
2019-04-11T03:41:26.774Z,0.80
2019-04-11T03:43:58.178Z,0.70
2019-04-11T03:46:32.627Z,0.60
2019-04-11T03:49:01.319Z,0.60
2019-04-11T03:51:22.826Z,0.50
2019-04-11T03:53:53.655Z,0.50
2019-04-11T03:56:24.482Z,0.50
2019-04-11T03:58:55.415Z,0.50
2019-04-11T04:01:26.785Z,0.50
2019-04-11T04:03:58.414Z,0.50
2019-04-11T04:06:30.898Z,0.50
2019-04-11T04:09:02.838Z,0.50
2019-04-11T04:11:34.935Z,0.50
2019-04-11T04:14:44.596Z,0.60
2019-04-11T04:17:43.489Z,0.60
2019-04-11T04:20:33.154Z,0.70
2019-04-11T04:23:12.421Z,0.70
2019-04-11T04:25:44.991Z,0.70
2019-04-11T04:28:15.851Z,0.70
2019-04-11T04:30:46.969Z,0.70
2019-04-11T04:33:22.038Z,0.80
2019-04-11T04:35:51.942Z,0.80
2019-04-11T04:38:24.048Z,0.90
2019-04-11T04:41:11.313Z,0.90
2019-04-11T04:43:31.667Z,1.00
2019-04-11T04:46:18.491Z,1.10
2019-04-11T04:48:34.767Z,1.20
2019-04-11T04:51:08.939Z,1.20
2019-04-11T04:53:36.854Z,1.30
2019-04-11T04:56:08.895Z,1.30
2019-04-11T04:58:39.956Z,1.40
2019-04-11T05:01:10.337Z,1.50
2019-04-11T05:03:42.238Z,1.50
2019-04-11T05:06:14.037Z,1.50
2019-04-11T05:08:45.131Z,1.70
2019-04-11T05:11:15.957Z,1.70
2019-04-11T05:13:49.243Z,1.80
2019-04-11T05:16:18.212Z,1.90
2019-04-11T05:18:48.524Z,1.80
2019-04-11T05:21:19.125Z,1.90
2019-04-11T05:23:50.059Z,1.90
2019-04-11T05:26:21.466Z,2.00
2019-04-11T05:28:52.944Z,2.00
2019-04-11T05:31:23.349Z,2.10
2019-04-11T05:33:53.900Z,2.20
2019-04-11T05:36:24.775Z,2.30
2019-04-11T05:38:55.089Z,2.40
2019-04-11T05:41:26.221Z,2.50
2019-04-11T05:44:00.791Z,2.50
2019-04-11T05:46:35.295Z,2.70
2019-04-11T05:49:12.076Z,2.80
2019-04-11T05:51:47.545Z,2.90
2019-04-11T05:54:18.386Z,3.00
2019-04-11T05:56:57.909Z,3.00
2019-04-11T05:59:29.196Z,3.20
2019-04-11T06:02:07.710Z,3.30
2019-04-11T06:04:48.897Z,3.40
2019-04-11T06:07:32.692Z,3.50
2019-04-11T06:10:10.164Z,3.70
2019-04-11T06:12:57.593Z,3.80
2019-04-11T06:15:31.909Z,3.90
2019-04-11T06:18:05.017Z,3.80
2019-04-11T06:20:40.486Z,3.90
2019-04-11T06:23:29.875Z,3.90
2019-04-11T06:26:19.078Z,4.00
2019-04-11T06:28:53.695Z,4.10
2019-04-11T06:31:42.258Z,4.30
2019-04-11T06:34:13.379Z,4.50
2019-04-11T06:37:01.369Z,4.70
2019-04-11T06:39:43.301Z,4.80
2019-04-11T06:42:35.713Z,5.00
2019-04-11T06:45:24.210Z,5.30
2019-04-11T06:48:05.273Z,5.40
2019-04-11T06:50:53.450Z,5.00
2019-04-11T06:53:28.279Z,5.10
2019-04-11T06:56:20.960Z,5.10
2019-04-11T06:58:56.449Z,5.30
2019-04-11T07:01:29.950Z,5.60
2019-04-11T07:04:04.952Z,5.80
2019-04-11T07:06:37.772Z,6.10
2019-04-11T07:09:27.233Z,6.30
2019-04-11T07:12:03.449Z,6.70
2019-04-11T07:14:43.330Z,7.00
2019-04-11T07:17:31.785Z,6.90
2019-04-11T07:20:24.941Z,6.60
2019-04-11T07:23:13.589Z,6.90
2019-04-11T07:26:00.842Z,6.80
2019-04-11T07:28:48.720Z,6.50
2019-04-11T07:31:38.103Z,6.40
2019-04-11T07:34:31.441Z,6.80
2019-04-11T07:37:17.328Z,6.80
2019-04-11T07:40:26.408Z,7.30
2019-04-11T07:43:08.823Z,6.80
2019-04-11T07:46:00.412Z,6.50
2019-04-11T07:48:33.825Z,6.30
2019-04-11T07:51:34.757Z,6.40
2019-04-11T07:54:20.157Z,6.30
2019-04-11T07:56:56.365Z,6.60
2019-04-11T07:59:51.409Z,6.30
2019-04-11T08:02:40.651Z,6.60
2019-04-11T08:05:50.194Z,6.60
2019-04-11T08:08:39.453Z,6.80
2019-04-11T08:11:23.440Z,6.90
2019-04-11T08:14:23.086Z,7.00
2019-04-11T08:17:09.285Z,7.40
2019-04-11T08:19:59.495Z,7.20
2019-04-11T08:22:35.014Z,6.80
2019-04-11T08:25:20.897Z,7.10
2019-04-11T08:28:04.276Z,7.60
2019-04-11T08:30:40.131Z,7.30
2019-04-11T08:33:11.198Z,7.10
2019-04-11T08:36:09.419Z,6.80
2019-04-11T08:38:40.526Z,6.60
2019-04-11T08:41:33.758Z,6.70
2019-04-11T08:44:09.824Z,6.80
2019-04-11T08:46:42.935Z,6.70
2019-04-11T08:49:18.862Z,6.90
2019-04-11T08:51:49.600Z,7.00
2019-04-11T08:54:37.695Z,7.10
2019-04-11T08:57:09.990Z,7.10
2019-04-11T08:59:57.676Z,7.20
2019-04-11T09:02:35.448Z,7.20
2019-04-11T09:05:44.231Z,6.90
2019-04-11T09:08:32.344Z,6.70
2019-04-11T09:11:24.618Z,7.00
2019-04-11T09:14:12.252Z,7.40
2019-04-11T09:17:00.379Z,8.10
2019-04-11T09:20:01.769Z,8.50
2019-04-11T09:22:51.213Z,8.40
2019-04-11T09:25:39.116Z,8.50
2019-04-11T09:28:17.633Z,8.40
2019-04-11T09:31:08.939Z,8.20
2019-04-11T09:33:57.575Z,7.70
2019-04-11T09:37:05.572Z,7.40
2019-04-11T09:39:55.875Z,7.70
2019-04-11T09:42:32.404Z,7.70
2019-04-11T09:45:19.590Z,7.60
2019-04-11T09:48:17.537Z,7.70
2019-04-11T09:51:02.450Z,7.80
2019-04-11T09:53:34.439Z,7.90
2019-04-11T09:56:33.312Z,7.40
2019-04-11T09:59:08.854Z,7.20
2019-04-11T10:01:58.228Z,7.30
2019-04-11T10:04:29.746Z,7.20
2019-04-11T10:07:17.702Z,7.20
2019-04-11T10:10:06.874Z,7.30
2019-04-11T10:12:56.019Z,7.20
2019-04-11T10:15:40.607Z,7.40
2019-04-11T10:18:27.777Z,7.40
2019-04-11T10:20:55.610Z,7.40
2019-04-11T10:23:34.553Z,7.60
2019-04-11T10:26:05.749Z,7.60
2019-04-11T10:29:06.682Z,7.60
2019-04-11T10:31:39.195Z,7.60
2019-04-11T10:34:27.981Z,7.80
2019-04-11T10:37:04.386Z,7.90
2019-04-11T10:40:00.062Z,7.70
2019-04-11T10:42:31.261Z,7.80
2019-04-11T10:45:29.282Z,7.90
2019-04-11T10:48:05.962Z,8.00
2019-04-11T10:51:00.404Z,8.00
2019-04-11T10:53:31.213Z,8.20
2019-04-11T10:56:30.568Z,8.30
2019-04-11T10:59:02.625Z,8.50
2019-04-11T11:02:00.733Z,8.80
2019-04-11T11:04:50.562Z,8.80
2019-04-11T11:07:26.752Z,8.80
2019-04-11T11:10:25.774Z,8.50
2019-04-11T11:13:18.075Z,8.50
2019-04-11T11:15:55.909Z,8.20
2019-04-11T11:19:14.958Z,8.80
2019-04-11T11:21:25.007Z,9.00
2019-04-11T11:24:11.821Z,8.80
2019-04-11T11:26:43.359Z,8.60
2019-04-11T11:29:40.142Z,9.00
2019-04-11T11:32:17.459Z,8.30
2019-04-11T11:35:01.054Z,8.70
2019-04-11T11:37:47.154Z,8.50
2019-04-11T11:40:38.454Z,8.80
2019-04-11T11:43:10.745Z,9.20
2019-04-11T11:45:58.922Z,9.20
2019-04-11T11:48:33.929Z,8.90
2019-04-11T11:51:08.965Z,8.80
2019-04-11T11:54:07.298Z,8.80
2019-04-11T11:56:38.447Z,8.80
2019-04-11T11:59:32.328Z,8.90
2019-04-11T12:02:06.408Z,8.80
2019-04-11T12:04:56.091Z,8.50
2019-04-11T12:07:33.790Z,8.40
2019-04-11T12:10:19.683Z,8.20
2019-04-11T12:13:11.603Z,8.10
2019-04-11T12:16:09.913Z,8.20
2019-04-11T12:19:09.181Z,8.20
2019-04-11T12:21:39.429Z,8.10
2019-04-11T12:24:32.375Z,8.00
2019-04-11T12:27:21.988Z,8.10
2019-04-11T12:30:10.886Z,8.40
2019-04-11T12:32:46.634Z,8.50
2019-04-11T12:35:38.675Z,8.70
2019-04-11T12:38:20.315Z,8.70
2019-04-11T12:41:07.802Z,8.50
2019-04-11T12:44:15.307Z,8.30
2019-04-11T12:47:07.566Z,8.10
2019-04-11T12:50:14.170Z,8.30
2019-04-11T12:52:49.280Z,8.20
2019-04-11T12:55:25.906Z,8.40
2019-04-11T12:58:15.088Z,8.30
2019-04-11T13:01:07.031Z,8.20
2019-04-11T13:03:58.864Z,7.90
2019-04-11T13:06:46.865Z,7.80
2019-04-11T13:09:33.963Z,7.80
2019-04-11T13:12:04.401Z,7.90
2019-04-11T13:14:40.943Z,8.00
2019-04-11T13:17:15.824Z,8.00
2019-04-11T13:20:10.720Z,7.90
2019-04-11T13:22:42.118Z,8.00
2019-04-11T13:25:30.142Z,8.00
2019-04-11T13:28:00.365Z,8.10
2019-04-11T13:30:48.120Z,8.10
2019-04-11T13:33:26.483Z,8.00
2019-04-11T13:36:15.717Z,8.10
2019-04-11T13:38:47.667Z,8.00
2019-04-11T13:41:35.590Z,8.10
2019-04-11T13:44:11.745Z,7.90
2019-04-11T13:47:10.019Z,7.90
2019-04-11T13:50:16.117Z,8.10
2019-04-11T13:52:55.995Z,8.10
2019-04-11T13:55:28.215Z,7.90
2019-04-11T13:58:17.668Z,8.00
2019-04-11T14:00:58.331Z,8.00
2019-04-11T14:03:47.822Z,7.90
2019-04-11T14:06:41.434Z,8.00
2019-04-11T14:09:31.322Z,7.90
2019-04-11T14:12:08.026Z,7.80
2019-04-11T14:14:52.807Z,7.70
2019-04-11T14:17:42.491Z,7.80
2019-04-11T14:20:33.875Z,8.00
2019-04-11T14:23:23.035Z,8.00
2019-04-11T14:26:09.285Z,8.00
2019-04-11T14:28:42.888Z,7.80
2019-04-11T14:31:43.722Z,7.80
2019-04-11T14:34:44.825Z,7.80
2019-04-11T14:37:38.942Z,7.70
2019-04-11T14:40:35.236Z,7.80
2019-04-11T14:43:22.998Z,7.70
2019-04-11T14:46:23.921Z,7.60
2019-04-11T14:49:10.205Z,7.50
2019-04-11T14:51:58.533Z,7.60
2019-04-11T14:54:34.748Z,7.50
2019-04-11T14:57:09.364Z,7.20
2019-04-11T14:59:42.677Z,7.20
2019-04-11T15:02:27.814Z,7.10
2019-04-11T15:05:02.890Z,7.20
2019-04-11T15:07:35.270Z,7.20
2019-04-11T15:10:30.577Z,7.10
2019-04-11T15:13:00.866Z,7.20
2019-04-11T15:15:37.098Z,7.30
2019-04-11T15:18:07.249Z,7.30
2019-04-11T15:21:06.780Z,7.50
2019-04-11T15:23:40.587Z,7.50
2019-04-11T15:26:42.161Z,7.40
2019-04-11T15:29:31.329Z,7.50
2019-04-11T15:32:23.549Z,7.50
2019-04-11T15:34:59.521Z,7.50
2019-04-11T15:37:51.286Z,7.40
2019-04-11T15:40:36.896Z,7.30
2019-04-11T15:43:31.891Z,7.30
2019-04-11T15:46:04.919Z,7.30
2019-04-11T15:49:03.136Z,7.30
2019-04-11T15:51:57.838Z,7.30
2019-04-11T15:54:47.162Z,7.30
2019-04-11T15:57:32.346Z,7.20
2019-04-11T16:00:29.205Z,7.20
2019-04-11T16:03:07.085Z,7.20
2019-04-11T16:06:01.574Z,7.20
2019-04-11T16:08:40.719Z,7.20
2019-04-11T16:11:38.935Z,7.10
2019-04-11T16:14:19.839Z,7.20
2019-04-11T16:17:13.953Z,7.10
2019-04-11T16:19:47.970Z,7.10
2019-04-11T16:22:30.990Z,7.00
2019-04-11T16:25:03.942Z,7.00
2019-04-11T16:27:55.662Z,7.00
2019-04-11T16:30:26.845Z,7.00
2019-04-11T16:33:12.490Z,7.00
2019-04-11T16:36:03.139Z,6.90
2019-04-11T16:38:38.954Z,7.00
2019-04-11T16:41:26.786Z,6.80
2019-04-11T16:44:00.502Z,6.80
2019-04-11T16:46:48.482Z,6.80
2019-04-11T16:49:18.761Z,6.80
2019-04-11T16:51:48.979Z,6.80
2019-04-11T16:54:19.323Z,6.80
2019-04-11T16:56:50.878Z,6.70
2019-04-11T16:59:21.185Z,6.70
2019-04-11T17:01:53.819Z,6.70
2019-04-11T17:04:25.819Z,6.70
2019-04-11T17:07:23.813Z,6.60
2019-04-11T17:09:56.890Z,6.50
2019-04-11T17:12:27.731Z,6.30
2019-04-11T17:14:57.914Z,6.30
2019-04-11T17:17:30.820Z,6.30
2019-04-11T17:19:59.873Z,6.20
2019-04-11T17:22:30.091Z,6.20
2019-04-11T17:25:00.330Z,6.00
2019-04-11T17:27:30.644Z,6.00
2019-04-11T17:30:00.891Z,5.90
2019-04-11T17:32:32.373Z,6.00
2019-04-11T17:35:02.789Z,6.00
2019-04-11T17:37:33.668Z,5.90
2019-04-11T17:40:06.833Z,5.80
2019-04-11T17:42:36.993Z,5.70
2019-04-11T17:45:07.664Z,5.50
2019-04-11T17:47:37.911Z,5.50
2019-04-11T17:50:08.093Z,5.60
2019-04-11T17:52:38.436Z,5.50
2019-04-11T17:55:08.642Z,5.40
2019-04-11T17:57:38.898Z,5.30
2019-04-11T18:00:13.122Z,5.30
2019-04-11T18:02:45.147Z,5.20
2019-04-11T18:05:17.141Z,5.10
2019-04-11T18:07:49.785Z,5.00
2019-04-11T18:10:19.126Z,4.90
2019-04-11T18:12:49.385Z,4.80
2019-04-11T18:15:19.574Z,4.80
2019-04-11T18:17:49.739Z,4.80
2019-04-11T18:20:20.290Z,4.80
2019-04-11T18:22:50.974Z,4.90
2019-04-11T18:25:21.550Z,4.90
2019-04-11T18:27:52.476Z,4.90
2019-04-11T18:30:23.298Z,4.90
2019-04-11T18:32:54.297Z,5.00
2019-04-11T18:35:24.651Z,5.00
2019-04-11T18:37:54.889Z,4.90
2019-04-11T18:40:25.288Z,5.00
2019-04-11T18:42:55.502Z,4.90
2019-04-11T18:45:25.866Z,4.90
2019-04-11T18:47:56.166Z,4.90
2019-04-11T18:50:28.724Z,4.90
2019-04-11T18:52:59.585Z,4.90
2019-04-11T18:55:30.407Z,5.00
2019-04-11T18:58:01.653Z,4.90
2019-04-11T19:00:32.430Z,4.90
2019-04-11T19:03:02.667Z,4.90
2019-04-11T19:05:32.997Z,4.90
2019-04-11T19:08:03.311Z,4.90
2019-04-11T19:10:34.878Z,4.90
2019-04-11T19:13:05.546Z,4.90
2019-04-11T19:15:35.842Z,5.00
2019-04-11T19:18:07.115Z,4.90
2019-04-11T19:20:37.538Z,4.90
2019-04-11T19:23:08.515Z,4.90
2019-04-11T19:25:44.065Z,4.80
2019-04-11T19:28:10.796Z,4.90
2019-04-11T19:30:42.435Z,4.80
2019-04-11T19:33:12.790Z,4.80
2019-04-11T19:35:42.999Z,4.80
2019-04-11T19:38:25.555Z,4.60
2019-04-11T19:40:56.828Z,4.60
2019-04-11T19:43:27.137Z,4.60
2019-04-11T19:45:58.656Z,4.50
2019-04-11T19:48:29.057Z,4.50
2019-04-11T19:50:59.796Z,4.40
2019-04-11T19:53:32.723Z,4.40
2019-04-11T19:56:26.641Z,4.30
2019-04-11T19:58:56.771Z,4.30
2019-04-11T20:01:27.153Z,4.10
2019-04-11T20:03:57.419Z,4.10
2019-04-11T20:06:27.852Z,4.00
2019-04-11T20:08:58.186Z,4.00
2019-04-11T20:11:29.327Z,3.90
2019-04-11T20:14:02.883Z,3.80
2019-04-11T20:16:41.121Z,3.80
2019-04-11T20:19:04.079Z,3.80
2019-04-11T20:21:37.862Z,3.70
2019-04-11T20:24:06.178Z,3.60
2019-04-11T20:26:36.422Z,3.50
2019-04-11T20:29:06.724Z,3.50
2019-04-11T20:31:36.922Z,3.50
2019-04-11T20:34:08.027Z,3.50
2019-04-11T20:36:40.841Z,3.40
2019-04-11T20:39:10.346Z,3.30
2019-04-11T20:41:40.589Z,3.30
2019-04-11T20:44:10.876Z,3.20
2019-04-11T20:46:41.184Z,3.20
2019-04-11T20:49:11.292Z,3.20
2019-04-11T20:51:41.546Z,3.20
2019-04-11T20:54:11.735Z,3.20
2019-04-11T20:56:41.857Z,3.20
2019-04-11T20:59:12.167Z,3.20
2019-04-11T21:01:42.449Z,3.20
2019-04-11T21:04:15.922Z,3.20
2019-04-11T21:06:46.105Z,3.20
2019-04-11T21:09:16.289Z,3.10
2019-04-11T21:11:46.523Z,3.10
2019-04-11T21:14:16.752Z,3.10
2019-04-11T21:16:46.979Z,3.00
2019-04-11T21:19:17.148Z,3.00
2019-04-11T21:21:47.372Z,2.90
2019-04-11T21:24:17.611Z,2.80
2019-04-11T21:26:47.751Z,2.80
2019-04-11T21:29:17.930Z,2.80
2019-04-11T21:31:48.104Z,2.80
2019-04-11T21:34:18.385Z,2.80
2019-04-11T21:36:48.530Z,2.80
2019-04-11T21:39:18.700Z,2.80
2019-04-11T21:41:48.965Z,2.80
2019-04-11T21:44:19.134Z,2.80
2019-04-11T21:46:49.562Z,2.90
2019-04-11T21:49:20.742Z,2.80
2019-04-11T21:51:50.857Z,2.70
2019-04-11T21:54:20.995Z,2.70
2019-04-11T21:56:51.181Z,2.70
2019-04-11T21:59:21.346Z,2.70
2019-04-11T22:01:53.806Z,2.70
2019-04-11T22:04:26.889Z,2.60
2019-04-11T22:06:55.367Z,2.60
2019-04-11T22:09:25.676Z,2.60
2019-04-11T22:11:55.846Z,2.60
2019-04-11T22:14:25.913Z,2.60
2019-04-11T22:16:56.014Z,2.70
2019-04-11T22:19:26.182Z,2.80
2019-04-11T22:21:56.422Z,2.80
2019-04-11T22:24:26.642Z,2.90
2019-04-11T22:26:56.750Z,2.80
2019-04-11T22:29:26.936Z,2.80
2019-04-11T22:31:57.105Z,2.80
2019-04-11T22:34:37.801Z,2.80
2019-04-11T22:37:08.101Z,2.80
2019-04-11T22:39:38.282Z,2.80
2019-04-11T22:42:08.657Z,2.80
2019-04-11T22:44:38.889Z,2.70
2019-04-11T22:47:10.041Z,2.70
2019-04-11T22:49:40.242Z,2.70
2019-04-11T22:52:11.376Z,2.70
2019-04-11T22:54:42.262Z,2.60
2019-04-11T22:57:12.919Z,2.60
2019-04-11T22:59:44.858Z,2.70
2019-04-11T23:02:24.412Z,2.60
2019-04-11T23:04:54.805Z,2.50
2019-04-11T23:07:24.965Z,2.40
2019-04-11T23:09:56.238Z,2.30
2019-04-11T23:12:26.486Z,2.30
2019-04-11T23:14:56.666Z,2.30
2019-04-11T23:17:26.858Z,2.20
2019-04-11T23:19:56.994Z,2.20
2019-04-11T23:22:27.179Z,2.20
2019-04-11T23:24:57.500Z,2.10
2019-04-11T23:27:27.668Z,2.10
2019-04-11T23:29:57.770Z,2.10
2019-04-11T23:32:27.898Z,2.10
2019-04-11T23:34:58.074Z,2.10
2019-04-11T23:37:29.964Z,2.10
2019-04-11T23:40:00.151Z,2.10
2019-04-11T23:42:30.245Z,2.10
2019-04-11T23:45:00.405Z,2.10
2019-04-11T23:47:30.466Z,2.10
2019-04-11T23:50:00.595Z,2.20
2019-04-11T23:52:31.943Z,2.20
2019-04-11T23:55:02.111Z,2.20
2019-04-11T23:57:32.257Z,2.20
